Time,TemperatureF,DewpointF,PressureIn,WindDirection,WindDirectionDegrees,WindSpeedMPH,WindSpeedGustMPH,Humidity,HourlyPrecipIn,Conditions,Clouds,dailyrainin,SoftwareType,DateUTC
2013-02-20 00:01:00,28.0,4.0,-100.00,South,181,11.0,16.0,35,0.00,,,-99.99,,2013-02-20 07:01:00,
2013-02-20 00:11:00,29.0,4.0,-100.00,South,176,14.0,16.0,33,0.00,,,-99.99,,2013-02-20 07:11:00,
2013-02-20 00:21:00,26.0,6.0,-100.00,South,184,10.0,12.0,41,0.00,,,-99.99,,2013-02-20 07:21:00,
2013-02-20 00:31:00,25.0,6.0,-100.00,South,184,11.0,12.0,44,0.00,,,-99.99,,2013-02-20 07:31:00,
2013-02-20 00:41:00,26.0,8.0,-100.00,SSW,192,9.0,12.0,45,0.00,,,-99.99,,2013-02-20 07:41:00,
2013-02-20 00:51:00,27.0,5.0,-100.00,South,179,11.0,12.0,37,0.00,,,-99.99,,2013-02-20 07:51:00,
2013-02-20 01:05:00,29.0,4.0,-100.00,South,186,9.0,11.0,33,0.00,,,-99.99,,2013-02-20 08:05:00,
2013-02-20 01:11:00,29.0,4.0,-100.00,South,181,8.0,10.0,34,0.00,,,-99.99,,2013-02-20 08:11:00,
2013-02-20 01:21:00,29.0,3.0,-100.00,South,181,9.0,11.0,33,0.00,,,-99.99,,2013-02-20 08:21:00,
2013-02-20 01:31:00,29.0,3.0,-100.00,South,181,10.0,11.0,33,0.00,,,-99.99,,2013-02-20 08:31:00,
2013-02-20 01:41:00,29.0,3.0,-100.00,South,182,10.0,11.0,33,0.00,,,-99.99,,2013-02-20 08:41:00,
2013-02-20 01:52:00,28.0,4.0,-100.00,South,185,9.0,11.0,34,0.00,,,-99.99,,2013-02-20 08:52:00,
2013-02-20 02:01:00,28.0,4.0,-100.00,South,185,10.0,12.0,35,0.00,,,-99.99,,2013-02-20 09:01:00,
2013-02-20 02:11:00,27.0,4.0,-100.00,South,186,10.0,12.0,37,0.00,,,-99.99,,2013-02-20 09:11:00,
2013-02-20 02:21:00,27.0,4.0,-100.00,South,184,10.0,12.0,36,0.00,,,-99.99,,2013-02-20 09:21:00,
2013-02-20 02:31:00,29.0,2.0,-100.00,South,176,9.0,13.0,31,0.00,,,-99.99,,2013-02-20 09:31:00,
2013-02-20 02:41:00,30.0,1.0,-100.00,South,178,10.0,13.0,29,0.00,,,-99.99,,2013-02-20 09:41:00,
2013-02-20 02:51:00,29.0,3.0,-100.00,SSE,168,9.0,11.0,32,0.00,,,-99.99,,2013-02-20 09:51:00,
2013-02-20 03:01:00,29.0,3.0,-100.00,South,172,9.0,12.0,32,0.00,,,-99.99,,2013-02-20 10:01:00,
2013-02-20 03:12:00,27.0,4.0,-100.00,South,172,9.0,11.0,36,0.00,,,-99.99,,2013-02-20 10:12:00,
2013-02-20 03:21:00,27.0,3.0,-100.00,South,184,10.0,12.0,35,0.00,,,-99.99,,2013-02-20 10:21:00,
2013-02-20 03:31:00,28.0,3.0,-100.00,South,181,10.0,12.0,33,0.00,,,-99.99,,2013-02-20 10:31:00,
2013-02-20 03:41:00,28.0,4.0,-100.00,South,181,9.0,12.0,35,0.00,,,-99.99,,2013-02-20 10:41:00,
2013-02-20 03:51:00,28.0,3.0,-100.00,South,179,9.0,11.0,34,0.00,,,-99.99,,2013-02-20 10:51:00,
2013-02-20 04:02:00,28.0,3.0,-100.00,South,182,9.0,11.0,34,0.00,,,-99.99,,2013-02-20 11:02:00,
2013-02-20 04:11:00,28.0,3.0,-100.00,South,185,9.0,11.0,34,0.00,,,-99.99,,2013-02-20 11:11:00,
2013-02-20 04:21:00,28.0,3.0,-100.00,South,186,9.0,11.0,34,0.00,,,-99.99,,2013-02-20 11:21:00,
2013-02-20 04:32:00,29.0,3.0,-100.00,SW,216,7.0,10.0,33,0.00,,,-99.99,,2013-02-20 11:32:00,
2013-02-20 04:41:00,30.0,2.0,-100.00,SW,227,7.0,10.0,30,0.00,,,-99.99,,2013-02-20 11:41:00,
2013-02-20 04:52:00,29.0,3.0,-100.00,WSW,254,2.0,6.0,32,0.00,,,-99.99,,2013-02-20 11:52:00,
2013-02-20 05:01:00,25.0,7.0,-100.00,SSW,199,2.0,6.0,46,0.00,,,-99.99,,2013-02-20 12:01:00,
2013-02-20 05:12:00,25.0,6.0,-100.00,SSE,161,3.0,6.0,44,0.00,,,-99.99,,2013-02-20 12:12:00,
2013-02-20 05:21:00,25.0,6.0,-100.00,SSE,154,7.0,9.0,43,0.00,,,-99.99,,2013-02-20 12:21:00,
2013-02-20 05:32:00,29.0,4.0,-100.00,South,181,9.0,11.0,34,0.00,,,-99.99,,2013-02-20 12:32:00,
2013-02-20 05:42:00,29.0,4.0,-100.00,South,184,10.0,11.0,34,0.00,,,-99.99,,2013-02-20 12:42:00,
2013-02-20 05:52:00,29.0,4.0,-100.00,South,184,10.0,12.0,33,0.00,,,-99.99,,2013-02-20 12:52:00,
2013-02-20 06:01:00,28.0,5.0,-100.00,South,185,11.0,12.0,36,0.00,,,-99.99,,2013-02-20 13:01:00,
2013-02-20 06:11:00,29.0,5.0,-100.00,South,186,11.0,12.0,36,0.00,,,-99.99,,2013-02-20 13:11:00,
2013-02-20 06:22:00,28.0,5.0,-100.00,South,189,13.0,15.0,37,0.00,,,-99.99,,2013-02-20 13:22:00,
2013-02-20 06:31:00,29.0,4.0,-100.00,South,188,12.0,15.0,34,0.00,,,-99.99,,2013-02-20 13:31:00,
2013-02-20 06:42:00,29.0,4.0,-100.00,South,186,12.0,14.0,34,0.00,,,-99.99,,2013-02-20 13:42:00,
2013-02-20 06:51:00,29.0,5.0,-100.00,South,184,12.0,14.0,35,0.00,,,-99.99,,2013-02-20 13:51:00,
2013-02-20 07:01:00,29.0,5.0,-100.00,South,184,11.0,14.0,35,0.00,,,-99.99,,2013-02-20 14:01:00,
2013-02-20 07:11:00,29.0,6.0,-100.00,South,186,12.0,14.0,37,0.00,,,-99.99,,2013-02-20 14:11:00,
2013-02-20 07:21:00,29.0,7.0,-100.00,South,184,12.0,14.0,38,0.00,,,-99.99,,2013-02-20 14:21:00,
2013-02-20 07:32:00,29.0,7.0,-100.00,South,184,12.0,14.0,39,0.00,,,-99.99,,2013-02-20 14:32:00,
2013-02-20 07:42:00,30.0,5.0,-100.00,South,186,12.0,13.0,35,0.00,,,-99.99,,2013-02-20 14:42:00,
2013-02-20 07:52:00,29.0,7.0,-100.00,South,184,11.0,12.0,39,0.00,,,-99.99,,2013-02-20 14:52:00,
2013-02-20 08:01:00,29.0,6.0,-100.00,South,185,12.0,14.0,37,0.00,,,-99.99,,2013-02-20 15:01:00,
2013-02-20 08:11:00,30.0,7.0,-100.00,South,186,12.0,14.0,38,0.00,,,-99.99,,2013-02-20 15:11:00,
2013-02-20 08:22:00,29.0,7.0,-100.00,South,189,12.0,14.0,37,0.00,,,-99.99,,2013-02-20 15:22:00,
2013-02-20 08:32:00,30.0,6.0,-100.00,South,188,12.0,15.0,36,0.00,,,-99.99,,2013-02-20 15:32:00,
2013-02-20 08:42:00,30.0,7.0,-100.00,South,184,12.0,14.0,37,0.00,,,-99.99,,2013-02-20 15:42:00,
2013-02-20 08:51:00,31.0,6.0,-100.00,South,184,11.0,14.0,34,0.00,,,-99.99,,2013-02-20 15:51:00,
2013-02-20 09:01:00,31.0,9.0,-100.00,South,185,10.0,13.0,39,0.00,,,-99.99,,2013-02-20 16:01:00,
2013-02-20 09:11:00,32.0,7.0,-100.00,South,186,9.0,11.0,35,0.00,,,-99.99,,2013-02-20 16:11:00,
2013-02-20 09:21:00,32.0,7.0,-100.00,South,186,9.0,12.0,34,0.00,,,-99.99,,2013-02-20 16:21:00,
2013-02-20 09:32:00,32.0,9.0,-100.00,SSW,199,7.0,11.0,37,0.00,,,-99.99,,2013-02-20 16:32:00,
2013-02-20 09:41:00,33.0,8.0,-100.00,SSW,202,6.0,8.0,34,0.00,,,-99.99,,2013-02-20 16:41:00,
2013-02-20 09:52:00,35.0,9.0,-100.00,SSW,196,4.0,8.0,33,0.00,,,-99.99,,2013-02-20 16:52:00,
2013-02-20 10:01:00,35.0,7.0,-100.00,SSW,196,7.0,12.0,31,0.00,,,-99.99,,2013-02-20 17:01:00,
2013-02-20 10:11:00,35.0,9.0,-100.00,SSW,213,7.0,12.0,34,0.00,,,-99.99,,2013-02-20 17:11:00,
2013-02-20 10:21:00,35.0,8.0,-100.00,SSW,213,7.0,11.0,31,0.00,,,-99.99,,2013-02-20 17:21:00,
2013-02-20 10:32:00,36.0,7.0,-100.00,SSW,209,7.0,9.0,29,0.00,,,-99.99,,2013-02-20 17:32:00,
2013-02-20 10:41:00,36.0,10.0,-100.00,West,280,4.0,7.0,32,0.00,,,-99.99,,2013-02-20 17:41:00,
2013-02-20 10:52:00,36.0,10.0,-100.00,NNE,32,4.0,7.0,33,0.00,,,-99.99,,2013-02-20 17:52:00,
2013-02-20 11:02:00,38.0,12.0,-100.00,North,0,2.0,6.0,34,0.00,,,-99.99,,2013-02-20 18:02:00,
2013-02-20 11:11:00,36.0,14.0,-100.00,NW,322,4.0,6.0,41,0.00,,,-99.99,,2013-02-20 18:11:00,
2013-02-20 11:21:00,37.0,11.0,-100.00,WSW,248,2.0,4.0,33,0.00,,,-99.99,,2013-02-20 18:21:00,
2013-02-20 11:32:00,35.0,13.0,-100.00,NNW,340,3.0,6.0,39,0.00,,,-99.99,,2013-02-20 18:32:00,
2013-02-20 11:42:00,35.0,13.0,-100.00,NNW,343,3.0,6.0,41,0.00,,,-99.99,,2013-02-20 18:42:00,
2013-02-20 11:51:00,35.0,12.0,-100.00,North,1,1.0,2.0,38,0.00,,,-99.99,,2013-02-20 18:51:00,
2013-02-20 12:01:00,36.0,15.0,-100.00,NNE,20,2.0,3.0,43,0.00,,,-99.99,,2013-02-20 19:01:00,
2013-02-20 12:11:00,35.0,15.0,-100.00,NNE,21,3.0,5.0,44,0.00,,,-99.99,,2013-02-20 19:11:00,
2013-02-20 12:21:00,36.0,15.0,-100.00,North,354,3.0,6.0,41,0.00,,,-99.99,,2013-02-20 19:21:00,
2013-02-20 12:31:00,36.0,13.0,-100.00,North,354,4.0,6.0,39,0.00,,,-99.99,,2013-02-20 19:31:00,
2013-02-20 12:41:00,35.0,19.0,-100.00,North,349,4.0,7.0,52,0.00,,,-99.99,,2013-02-20 19:41:00,
2013-02-20 12:51:00,34.0,20.0,-100.00,NW,326,6.0,7.0,56,0.00,,,-99.99,,2013-02-20 19:51:00,
2013-02-20 13:01:00,34.0,17.0,-100.00,NNW,339,6.0,9.0,49,0.00,,,-99.99,,2013-02-20 20:01:00,
2013-02-20 13:11:00,35.0,16.0,-100.00,North,360,9.0,12.0,45,0.00,,,-99.99,,2013-02-20 20:11:00,
2013-02-20 13:21:00,35.0,21.0,-100.00,NNW,344,10.0,13.0,56,0.00,,,-99.99,,2013-02-20 20:21:00,
2013-02-20 13:31:00,35.0,17.0,-100.00,NNW,333,11.0,14.0,48,0.00,,,-99.99,,2013-02-20 20:31:00,
2013-02-20 13:41:00,35.0,16.0,-100.00,NNW,332,11.0,13.0,46,0.00,,,-99.99,,2013-02-20 20:41:00,
2013-02-20 13:51:00,35.0,14.0,-100.00,NNW,330,9.0,12.0,41,0.00,,,-99.99,,2013-02-20 20:51:00,
2013-02-20 14:01:00,32.0,21.0,-100.00,WNW,294,12.0,16.0,62,0.00,,,-99.99,,2013-02-20 21:01:00,
2013-02-20 14:11:00,31.0,20.0,-100.00,West,280,13.0,16.0,63,0.00,,,-99.99,,2013-02-20 21:11:00,
2013-02-20 14:21:00,32.0,18.0,-100.00,WNW,292,14.0,19.0,56,0.00,,,-99.99,,2013-02-20 21:21:00,
2013-02-20 14:31:00,32.0,18.0,-100.00,WNW,295,14.0,18.0,54,0.00,,,-99.99,,2013-02-20 21:31:00,
2013-02-20 14:41:00,33.0,17.0,-100.00,WNW,289,12.0,17.0,51,0.00,,,-99.99,,2013-02-20 21:41:00,
2013-02-20 14:51:00,33.0,13.0,-100.00,NW,306,9.0,12.0,43,0.00,,,-99.99,,2013-02-20 21:51:00,
2013-02-20 15:01:00,33.0,12.0,-100.00,West,281,11.0,30.0,42,0.00,,,-99.99,,2013-02-20 22:01:00,
2013-02-20 15:11:00,32.0,14.0,-100.00,SSW,213,6.0,12.0,46,0.00,,,-99.99,,2013-02-20 22:11:00,
2013-02-20 15:21:00,33.0,16.0,-100.00,SSE,167,2.0,7.0,48,0.00,,,-99.99,,2013-02-20 22:21:00,
2013-02-20 15:31:00,32.0,15.0,-100.00,NE,34,6.0,13.0,49,0.00,,,-99.99,,2013-02-20 22:31:00,
2013-02-20 15:42:00,32.0,15.0,-100.00,NNW,344,7.0,12.0,47,0.00,,,-99.99,,2013-02-20 22:42:00,
2013-02-20 15:51:00,33.0,16.0,-100.00,North,6,6.0,11.0,50,0.00,,,-99.99,,2013-02-20 22:51:00,
2013-02-20 16:01:00,33.0,14.0,-100.00,NNE,23,6.0,9.0,47,0.00,,,-99.99,,2013-02-20 23:01:00,
2013-02-20 16:12:00,31.0,19.0,-100.00,ENE,65,6.0,9.0,60,0.00,,,-99.99,,2013-02-20 23:12:00,
2013-02-20 16:22:00,31.0,19.0,-100.00,ENE,73,8.0,10.0,61,0.00,,,-99.99,,2013-02-20 23:22:00,
2013-02-20 16:32:00,31.0,20.0,-100.00,East,97,8.0,14.0,63,0.00,,,-99.99,,2013-02-20 23:32:00,
2013-02-20 16:42:00,31.0,21.0,-100.00,ESE,113,10.0,14.0,66,0.00,,,-99.99,,2013-02-20 23:42:00,
2013-02-20 16:52:00,31.0,21.0,-100.00,SE,126,9.0,13.0,67,0.00,,,-99.99,,2013-02-20 23:52:00,
2013-02-20 17:02:00,31.0,17.0,-100.00,ESE,120,10.0,20.0,55,0.00,,,-99.99,,2013-02-21 00:02:00,
2013-02-20 17:11:00,31.0,14.0,-100.00,SE,130,10.0,20.0,49,0.00,,,-99.99,,2013-02-21 00:11:00,
2013-02-20 17:21:00,30.0,15.0,-100.00,East,89,1.0,5.0,54,0.00,,,-99.99,,2013-02-21 00:21:00,
2013-02-20 17:32:00,30.0,15.0,-100.00,SE,138,1.0,3.0,54,0.00,,,-99.99,,2013-02-21 00:32:00,
2013-02-20 17:42:00,28.0,15.0,-100.00,South,178,2.0,4.0,56,0.00,,,-99.99,,2013-02-21 00:42:00,
2013-02-20 17:52:00,28.0,15.0,-100.00,South,174,4.0,4.0,57,0.00,,,-99.99,,2013-02-21 00:52:00,
2013-02-20 18:01:00,27.0,14.0,-100.00,South,175,3.0,4.0,58,0.00,,,-99.99,,2013-02-21 01:01:00,
2013-02-20 18:11:00,26.0,16.0,-100.00,ESE,113,3.0,6.0,65,0.00,,,-99.99,,2013-02-21 01:11:00,
2013-02-20 18:21:00,26.0,17.0,-100.00,ESE,102,2.0,4.0,69,0.00,,,-99.99,,2013-02-21 01:21:00,
2013-02-20 18:32:00,25.0,18.0,-100.00,ESE,106,3.0,9.0,75,0.00,,,-99.99,,2013-02-21 01:32:00,
2013-02-20 18:41:00,23.0,17.0,-100.00,East,82,6.0,10.0,77,0.00,,,-99.99,,2013-02-21 01:41:00,
2013-02-20 18:51:00,22.0,17.0,-100.00,East,85,7.0,12.0,81,0.00,,,-99.99,,2013-02-21 01:51:00,
2013-02-20 19:01:00,24.0,18.0,-100.00,SE,126,6.0,13.0,80,0.00,,,-99.99,,2013-02-21 02:01:00,
2013-02-20 19:11:00,24.0,18.0,-100.00,ESE,117,7.0,13.0,79,0.00,,,-99.99,,2013-02-21 02:11:00,
2013-02-20 19:21:00,23.0,17.0,-100.00,ESE,123,9.0,12.0,78,0.00,,,-99.99,,2013-02-21 02:21:00,
2013-02-20 19:32:00,23.0,17.0,-100.00,SE,140,7.0,9.0,80,0.00,,,-99.99,,2013-02-21 02:32:00,
2013-02-20 19:42:00,23.0,17.0,-100.00,SE,140,7.0,9.0,80,0.00,,,-99.99,,2013-02-21 02:42:00,
2013-02-20 19:51:00,23.0,17.0,-100.00,SE,140,7.0,9.0,80,0.00,,,-99.99,,2013-02-21 02:51:00,
2013-02-20 20:01:00,21.0,16.0,-100.00,ESE,116,9.0,11.0,82,0.00,,,-99.99,,2013-02-21 03:01:00,
2013-02-20 20:12:00,21.0,17.0,-100.00,ESE,114,9.0,11.0,84,0.00,,,-99.99,,2013-02-21 03:12:00,
2013-02-20 20:21:00,21.0,17.0,-100.00,ESE,119,9.0,12.0,86,0.00,,,-99.99,,2013-02-21 03:21:00,
2013-02-20 20:32:00,20.0,17.0,-100.00,SE,124,11.0,14.0,88,0.00,,,-99.99,,2013-02-21 03:32:00,
2013-02-20 20:41:00,20.0,18.0,-100.00,ESE,119,11.0,14.0,90,0.00,,,-99.99,,2013-02-21 03:41:00,
2013-02-20 20:51:00,20.0,18.0,-100.00,ESE,116,12.0,15.0,92,0.00,,,-99.99,,2013-02-21 03:51:00,
2013-02-20 21:01:00,19.0,18.0,-100.00,ESE,114,12.0,15.0,93,0.00,,,-99.99,,2013-02-21 04:01:00,
2013-02-20 21:11:00,19.0,17.0,-100.00,ESE,117,10.0,15.0,93,0.00,,,-99.99,,2013-02-21 04:11:00,
2013-02-20 21:21:00,18.0,17.0,-100.00,ESE,107,9.0,14.0,94,0.00,,,-99.99,,2013-02-21 04:21:00,
2013-02-20 21:32:00,18.0,17.0,-100.00,ESE,106,11.0,14.0,96,0.00,,,-99.99,,2013-02-21 04:32:00,
2013-02-20 21:42:00,17.0,17.0,-100.00,ESE,103,9.0,17.0,98,0.00,,,-99.99,,2013-02-21 04:42:00,
2013-02-20 21:51:00,17.0,17.0,-100.00,ESE,109,14.0,19.0,100,0.00,,,-99.99,,2013-02-21 04:51:00,
2013-02-20 22:02:00,17.0,17.0,-100.00,ESE,106,14.0,19.0,100,0.01,,,-99.99,,2013-02-21 05:02:00,
2013-02-20 22:12:00,17.0,17.0,-100.00,ESE,106,11.0,16.0,99,0.00,,,-99.99,,2013-02-21 05:12:00,
2013-02-20 22:22:00,17.0,17.0,-100.00,ESE,104,11.0,17.0,99,0.00,,,-99.99,,2013-02-21 05:22:00,
2013-02-20 22:34:00,18.0,17.0,-100.00,East,99,7.0,14.0,99,0.00,,,-99.99,,2013-02-21 05:34:00,
2013-02-20 22:43:00,18.0,17.0,-100.00,ESE,103,6.0,13.0,99,0.01,,,-99.99,,2013-02-21 05:43:00,
2013-02-20 22:52:00,18.0,18.0,-100.00,ESE,107,7.0,12.0,99,0.01,,,-99.99,,2013-02-21 05:52:00,
2013-02-20 23:01:00,17.0,17.0,-100.00,ESE,106,8.0,14.0,99,0.00,,,-99.99,,2013-02-21 06:01:00,
2013-02-20 23:11:00,17.0,17.0,-100.00,ESE,114,10.0,12.0,99,0.01,,,-99.99,,2013-02-21 06:11:00,
2013-02-20 23:21:00,18.0,17.0,-100.00,ESE,114,9.0,13.0,99,0.01,,,-99.99,,2013-02-21 06:21:00,
2013-02-20 23:31:00,17.0,17.0,-100.00,ESE,113,7.0,12.0,99,0.00,,,-99.99,,2013-02-21 06:31:00,
2013-02-20 23:41:00,17.0,17.0,-100.00,ENE,68,4.0,7.0,99,0.00,,,-99.99,,2013-02-21 06:41:00,
2013-02-20 23:51:00,17.0,17.0,-100.00,NE,49,6.0,9.0,99,0.00,,,-99.99,,2013-02-21 06:51:00,